AZU238 SBVT-SBRJ
Flight info
| Callsign | AZU238 |
|---|---|
| Flight time | 0h 22m |
| Altitude | 26000 |
| Route | MABSI UZ44 MCA |
| Aircraft | A320/M-SDE3FGHIRWY/LB1 |
Departure
| Time | 2026-04-21 00:21 |
|---|---|
| Airport | Eurico de Aguiar Salles International Airport (SBVT) |
Arrival
| Time | 2026-04-21 00:44 |
|---|---|
| Airport | Santos Dumont Airport (SBRJ) |
| Time | Latitude | Longitude | Altitude | Speed | Heading |
|---|---|---|---|---|---|
| 2026-04-21 00:05 | -20.26502 | -40.28173 | 33 ft | 0 kts | 261° |
| 2026-04-21 00:13 | -20.26499 | -40.28155 | 33 ft | 4 kts | 262° |
| 2026-04-21 00:13 | -20.26493 | -40.28128 | 30 ft | 4 kts | 239° |
| 2026-04-21 00:13 | -20.26476 | -40.28110 | 29 ft | 4 kts | 191° |
| 2026-04-21 00:14 | -20.26462 | -40.28110 | 32 ft | 1 kts | 172° |
| 2026-04-21 00:14 | -20.26460 | -40.28110 | 32 ft | 0 kts | 172° |
| 2026-04-21 00:16 | -20.26468 | -40.28109 | 30 ft | 5 kts | 172° |
| 2026-04-21 00:17 | -20.26532 | -40.28099 | 33 ft | 13 kts | 170° |
| 2026-04-21 00:17 | -20.26642 | -40.28075 | 34 ft | 11 kts | 161° |
| 2026-04-21 00:17 | -20.26725 | -40.28021 | 35 ft | 17 kts | 131° |
| 2026-04-21 00:17 | -20.26732 | -40.28008 | 35 ft | 0 kts | 116° |
| 2026-04-21 00:18 | -20.26733 | -40.28006 | 35 ft | 2 kts | 116° |
| 2026-04-21 00:18 | -20.26715 | -40.27966 | 34 ft | 13 kts | 59° |
| 2026-04-21 00:18 | -20.26642 | -40.27909 | 34 ft | 13 kts | 27° |
| 2026-04-21 00:18 | -20.26565 | -40.27858 | 32 ft | 11 kts | 22° |
| 2026-04-21 00:19 | -20.26521 | -40.27859 | 31 ft | 2 kts | 353° |
| 2026-04-21 00:19 | -20.26502 | -40.27861 | 30 ft | 3 kts | 352° |
| 2026-04-21 00:19 | -20.26481 | -40.27864 | 31 ft | 3 kts | 352° |
| 2026-04-21 00:19 | -20.26463 | -40.27867 | 31 ft | 0 kts | 352° |
| 2026-04-21 00:20 | -20.26461 | -40.27867 | 31 ft | 0 kts | 352° |
| 2026-04-21 00:20 | -20.26457 | -40.27868 | 31 ft | 1 kts | 352° |
| 2026-04-21 00:20 | -20.26451 | -40.27869 | 31 ft | 1 kts | 352° |
| 2026-04-21 00:20 | -20.26368 | -40.27881 | 30 ft | 42 kts | 352° |
| 2026-04-21 00:21 | -20.25799 | -40.27971 | 28 ft | 118 kts | 352° |
| 2026-04-21 00:21 | -20.24776 | -40.28131 | 54 ft | 172 kts | 353° |
| 2026-04-21 00:21 | -20.23599 | -40.28303 | 810 ft | 171 kts | 347° |
| 2026-04-21 00:21 | -20.22620 | -40.28935 | 1624 ft | 168 kts | 304° |
| 2026-04-21 00:22 | -20.22308 | -40.30123 | 2239 ft | 174 kts | 261° |
| 2026-04-21 00:22 | -20.22867 | -40.31254 | 2880 ft | 177 kts | 218° |
| 2026-04-21 00:22 | -20.24014 | -40.31741 | 3492 ft | 188 kts | 189° |
| 2026-04-21 00:22 | -20.25331 | -40.32176 | 3869 ft | 210 kts | 204° |
| 2026-04-21 00:23 | -20.26670 | -40.32958 | 4340 ft | 231 kts | 209° |
| 2026-04-21 00:23 | -20.28081 | -40.33862 | 5047 ft | 245 kts | 210° |
| 2026-04-21 00:23 | -20.29100 | -40.34514 | 5449 ft | 259 kts | 210° |
| 2026-04-21 00:23 | -20.30697 | -40.35522 | 6348 ft | 266 kts | 211° |
| 2026-04-21 00:24 | -20.34321 | -40.37968 | 8561 ft | 275 kts | 214° |
| 2026-04-21 00:24 | -20.41138 | -40.42664 | 11336 ft | 324 kts | 214° |
| 2026-04-21 00:24 | -20.49648 | -40.48494 | 12941 ft | 389 kts | 213° |
| 2026-04-21 00:24 | -20.58927 | -40.54847 | 15455 ft | 404 kts | 213° |
| 2026-04-21 00:25 | -20.68431 | -40.61361 | 17697 ft | 418 kts | 213° |
| 2026-04-21 00:25 | -20.78349 | -40.68163 | 19679 ft | 429 kts | 212° |
| 2026-04-21 00:25 | -20.88620 | -40.75238 | 21531 ft | 437 kts | 212° |
| 2026-04-21 00:25 | -20.98932 | -40.82341 | 23175 ft | 444 kts | 211° |
| 2026-04-21 00:26 | -21.09399 | -40.89570 | 24491 ft | 452 kts | 211° |
| 2026-04-21 00:26 | -21.20025 | -40.96920 | 25684 ft | 458 kts | 211° |
| 2026-04-21 00:26 | -21.30819 | -41.04382 | 26360 ft | 463 kts | 211° |
| 2026-04-21 00:26 | -21.41589 | -41.11868 | 26084 ft | 470 kts | 211° |
| 2026-04-21 00:27 | -21.52559 | -41.19503 | 25939 ft | 472 kts | 211° |
| 2026-04-21 00:27 | -21.63492 | -41.27126 | 26338 ft | 469 kts | 211° |
| 2026-04-21 00:27 | -21.74418 | -41.34745 | 26344 ft | 468 kts | 211° |
| 2026-04-21 00:27 | -21.85325 | -41.42382 | 26333 ft | 468 kts | 211° |
| 2026-04-21 00:28 | -21.96274 | -41.50041 | 26335 ft | 468 kts | 211° |
| 2026-04-21 00:28 | -22.07098 | -41.57658 | 26325 ft | 468 kts | 211° |
| 2026-04-21 00:28 | -22.18062 | -41.65389 | 26318 ft | 468 kts | 211° |
| 2026-04-21 00:28 | -22.28972 | -41.73022 | 26307 ft | 467 kts | 211° |
| 2026-04-21 00:29 | -22.39096 | -41.80152 | 26301 ft | 468 kts | 210° |
| 2026-04-21 00:29 | -22.50041 | -41.87521 | 26318 ft | 468 kts | 210° |
| 2026-04-21 00:29 | -22.61085 | -41.95080 | 26343 ft | 476 kts | 210° |
| 2026-04-21 00:29 | -22.68520 | -42.00181 | 26285 ft | 468 kts | 210° |
| 2026-04-21 00:30 | -22.71273 | -42.02065 | 26245 ft | 469 kts | 210° |
| 2026-04-21 00:30 | -22.74034 | -42.03959 | 25395 ft | 469 kts | 211° |
| 2026-04-21 00:30 | -22.76781 | -42.05846 | 24473 ft | 465 kts | 211° |
| 2026-04-21 00:30 | -22.79359 | -42.07896 | 23748 ft | 459 kts | 219° |
| 2026-04-21 00:31 | -22.81532 | -42.10459 | 22883 ft | 467 kts | 231° |
| 2026-04-21 00:31 | -22.83231 | -42.13474 | 22124 ft | 469 kts | 242° |
| 2026-04-21 00:31 | -22.84385 | -42.16775 | 21385 ft | 469 kts | 251° |
| 2026-04-21 00:31 | -22.85362 | -42.20143 | 20685 ft | 466 kts | 251° |
| 2026-04-21 00:32 | -22.86322 | -42.23444 | 19987 ft | 463 kts | 251° |
| 2026-04-21 00:32 | -22.87289 | -42.26754 | 19299 ft | 459 kts | 251° |
| 2026-04-21 00:32 | -22.88250 | -42.30041 | 18628 ft | 456 kts | 251° |
| 2026-04-21 00:32 | -22.89205 | -42.33306 | 17887 ft | 452 kts | 251° |
| 2026-04-21 00:33 | -22.90146 | -42.36533 | 17135 ft | 447 kts | 251° |
| 2026-04-21 00:33 | -22.91075 | -42.39726 | 16396 ft | 441 kts | 251° |
| 2026-04-21 00:33 | -22.91988 | -42.42869 | 15677 ft | 435 kts | 251° |
| 2026-04-21 00:33 | -22.92889 | -42.45978 | 14965 ft | 429 kts | 251° |
| 2026-04-21 00:34 | -22.93776 | -42.49039 | 14273 ft | 423 kts | 251° |
| 2026-04-21 00:34 | -22.94673 | -42.52059 | 13554 ft | 417 kts | 250° |
| 2026-04-21 00:34 | -22.95574 | -42.55019 | 12792 ft | 411 kts | 250° |
| 2026-04-21 00:34 | -22.96474 | -42.57941 | 12057 ft | 404 kts | 250° |
| 2026-04-21 00:35 | -22.97351 | -42.60776 | 11341 ft | 398 kts | 250° |
| 2026-04-21 00:35 | -22.98234 | -42.63638 | 10618 ft | 392 kts | 250° |
| 2026-04-21 00:35 | -22.99006 | -42.66160 | 9985 ft | 387 kts | 250° |
| 2026-04-21 00:35 | -22.99844 | -42.68915 | 9224 ft | 381 kts | 251° |
| 2026-04-21 00:36 | -23.00665 | -42.71631 | 8476 ft | 376 kts | 251° |
| 2026-04-21 00:36 | -23.01473 | -42.74312 | 7744 ft | 372 kts | 251° |
| 2026-04-21 00:36 | -23.02204 | -42.76735 | 7079 ft | 368 kts | 251° |
| 2026-04-21 00:36 | -23.02940 | -42.79369 | 6363 ft | 364 kts | 258° |
| 2026-04-21 00:37 | -23.02917 | -42.82082 | 5620 ft | 362 kts | 282° |
| 2026-04-21 00:37 | -23.01873 | -42.84569 | 5223 ft | 363 kts | 298° |
| 2026-04-21 00:37 | -23.00651 | -42.86832 | 5054 ft | 329 kts | 298° |
| 2026-04-21 00:37 | -22.99542 | -42.88890 | 4693 ft | 302 kts | 298° |
| 2026-04-21 00:38 | -22.98521 | -42.90790 | 4285 ft | 282 kts | 298° |
| 2026-04-21 00:38 | -22.97569 | -42.92569 | 3837 ft | 268 kts | 298° |
| 2026-04-21 00:38 | -22.96644 | -42.94304 | 3674 ft | 266 kts | 297° |
| 2026-04-21 00:38 | -22.95911 | -42.96103 | 3505 ft | 263 kts | 285° |
| 2026-04-21 00:39 | -22.95347 | -42.97995 | 3327 ft | 263 kts | 286° |
| 2026-04-21 00:39 | -22.94780 | -42.99845 | 3133 ft | 254 kts | 286° |
| 2026-04-21 00:39 | -22.94227 | -43.01621 | 2947 ft | 240 kts | 286° |
| 2026-04-21 00:39 | -22.93703 | -43.03264 | 2785 ft | 221 kts | 291° |
| 2026-04-21 00:40 | -22.92953 | -43.04658 | 2632 ft | 209 kts | 304° |
| 2026-04-21 00:40 | -22.92129 | -43.05897 | 2496 ft | 195 kts | 304° |
| 2026-04-21 00:40 | -22.91373 | -43.07040 | 2352 ft | 179 kts | 304° |
| 2026-04-21 00:40 | -22.90679 | -43.08093 | 2215 ft | 166 kts | 304° |
| 2026-04-21 00:41 | -22.90025 | -43.09088 | 2047 ft | 157 kts | 304° |
| 2026-04-21 00:41 | -22.89401 | -43.10040 | 1841 ft | 152 kts | 304° |
| 2026-04-21 00:41 | -22.88794 | -43.10964 | 1656 ft | 148 kts | 304° |
| 2026-04-21 00:41 | -22.88210 | -43.11855 | 1490 ft | 140 kts | 304° |
| 2026-04-21 00:42 | -22.87656 | -43.12698 | 1261 ft | 136 kts | 304° |
| 2026-04-21 00:42 | -22.87121 | -43.13534 | 1075 ft | 134 kts | 298° |
| 2026-04-21 00:42 | -22.86893 | -43.14499 | 918 ft | 133 kts | 270° |
| 2026-04-21 00:42 | -22.87105 | -43.15461 | 713 ft | 132 kts | 240° |
| 2026-04-21 00:43 | -22.87754 | -43.16137 | 594 ft | 130 kts | 207° |
| 2026-04-21 00:43 | -22.88626 | -43.16393 | 418 ft | 131 kts | 184° |
| 2026-04-21 00:43 | -22.89546 | -43.16373 | 233 ft | 130 kts | 178° |
| 2026-04-21 00:43 | -22.90469 | -43.16314 | 50 ft | 129 kts | 178° |
| 2026-04-21 00:44 | -22.91228 | -43.16279 | 21 ft | 74 kts | 177° |
| 2026-04-21 00:44 | -22.91537 | -43.16257 | 20 ft | 20 kts | 175° |
| 2026-04-21 00:44 | -22.91601 | -43.16287 | 20 ft | 5 kts | 306° |
| 2026-04-21 00:45 | -22.91426 | -43.16476 | 22 ft | 27 kts | 317° |
| 2026-04-21 00:45 | -22.91271 | -43.16528 | 22 ft | 25 kts | 353° |
| 2026-04-21 00:45 | -22.91043 | -43.16548 | 22 ft | 37 kts | 357° |
| 2026-04-21 00:45 | -22.90785 | -43.16561 | 22 ft | 37 kts | 358° |
| 2026-04-21 00:46 | -22.90574 | -43.16565 | 22 ft | 20 kts | 1° |
| 2026-04-21 00:46 | -22.90497 | -43.16489 | 23 ft | 15 kts | 82° |
| 2026-04-21 00:46 | -22.90485 | -43.16385 | 26 ft | 13 kts | 74° |
| 2026-04-21 00:46 | -22.90488 | -43.16312 | 24 ft | 9 kts | 174° |
| 2026-04-21 00:47 | -22.90504 | -43.16314 | 27 ft | 0 kts | 185° |
| 2026-04-21 00:47 | -22.90584 | -43.16314 | 25 ft | 51 kts | 177° |
| 2026-04-21 00:47 | -22.91278 | -43.16270 | 23 ft | 144 kts | 177° |
| 2026-04-21 00:48 | -22.92363 | -43.16182 | 694 ft | 160 kts | 168° |
| 2026-04-21 00:48 | -22.93362 | -43.15541 | 1234 ft | 182 kts | 133° |
| 2026-04-21 00:48 | -22.93747 | -43.14319 | 1506 ft | 173 kts | 86° |
| 2026-04-21 00:48 | -22.93323 | -43.13110 | 1720 ft | 174 kts | 64° |
| 2026-04-21 00:49 | -22.92731 | -43.11968 | 1917 ft | 174 kts | 50° |
| 2026-04-21 00:49 | -22.91833 | -43.11167 | 2024 ft | 162 kts | 28° |
| 2026-04-21 00:49 | -22.90799 | -43.10787 | 2031 ft | 154 kts | 9° |
| 2026-04-21 00:49 | -22.89747 | -43.10609 | 1901 ft | 152 kts | 3° |
| 2026-04-21 00:50 | -22.88736 | -43.10822 | 1721 ft | 149 kts | 334° |
| 2026-04-21 00:50 | -22.87924 | -43.11479 | 1545 ft | 144 kts | 308° |
| 2026-04-21 00:50 | -22.87431 | -43.12421 | 1400 ft | 143 kts | 290° |
| 2026-04-21 00:50 | -22.87171 | -43.13444 | 1139 ft | 139 kts | 280° |
| 2026-04-21 00:51 | -22.87213 | -43.14470 | 874 ft | 137 kts | 253° |
| 2026-04-21 00:51 | -22.87655 | -43.15355 | 636 ft | 132 kts | 227° |
| 2026-04-21 00:51 | -22.88351 | -43.15975 | 446 ft | 129 kts | 215° |
| 2026-04-21 00:51 | -22.89188 | -43.16347 | 294 ft | 130 kts | 189° |
| 2026-04-21 00:52 | -22.90078 | -43.16337 | 101 ft | 129 kts | 179° |
| 2026-04-21 00:52 | -22.90967 | -43.16284 | 28 ft | 113 kts | 176° |
| 2026-04-21 00:52 | -22.91486 | -43.16257 | 20 ft | 38 kts | 175° |
| 2026-04-21 00:52 | -22.91598 | -43.16294 | 20 ft | 12 kts | 274° |
| 2026-04-21 00:53 | -22.91543 | -43.16355 | 20 ft | 11 kts | 316° |
| 2026-04-21 00:53 | -22.91493 | -43.16406 | 21 ft | 9 kts | 317° |
| 2026-04-21 00:53 | -22.91414 | -43.16484 | 22 ft | 21 kts | 320° |
| 2026-04-21 00:53 | -22.91288 | -43.16512 | 24 ft | 11 kts | 337° |
| 2026-04-21 00:54 | -22.91282 | -43.16539 | 22 ft | 6 kts | 270° |
| 2026-04-21 00:54 | -22.91282 | -43.16574 | 22 ft | 1 kts | 269° |
| 2026-04-21 00:54 | -22.91282 | -43.16575 | 22 ft | 0 kts | 269° |